Time;durP1;ratioP1;P1;durP2;ratioP2;P2;SDS_P1;SDS_P2;PMS_P1;PMS_P2;Temp;Humidity;BMP_temperature;BMP_pressure;BME280_temperature;BME280_humidity;BME280_pressure;Samples;Min_cycle;Max_cycle;Signal;HPM_P1;HPM_P2
2021/11/13 00:02:00;;;;;;;53.85;14.43;;;;;;;2.16;98.28;97565.78;4947425;29;20505;-62
2021/11/13 00:04:27;;;;;;;38.22;13.27;;;;;;;1.46;98.54;97470.47;4947238;29;20070;-62
2021/11/13 00:06:54;;;;;;;39.10;15.35;;;;;;;1.81;98.85;97514.56;4947506;28;21208;-60
2021/11/13 00:09:20;;;;;;;43.53;15.80;;;;;;;2.22;100.00;97559.94;4947908;29;20060;-61
2021/11/13 00:11:47;;;;;;;33.13;15.73;;;;;;;2.08;100.00;97537.25;4945735;29;20058;-62
2021/11/13 00:14:17;;;;;;;28.45;14.77;;;;;;;2.17;100.00;97556.47;4947836;29;20455;-60
2021/11/13 00:16:45;;;;;;;29.25;13.50;;;;;;;2.26;99.85;97568.34;4947358;29;20558;-61
2021/11/13 00:19:12;;;;;;;29.55;13.07;;;;;;;2.28;100.00;97563.34;4947317;29;20047;-62
2021/11/13 00:21:39;;;;;;;37.15;16.88;;;;;;;2.33;98.90;97565.97;4947803;28;20061;-61
2021/11/13 00:24:06;;;;;;;25.40;14.13;;;;;;;2.31;99.91;97568.22;4947395;28;20066;-60
2021/11/13 00:26:33;;;;;;;30.15;13.95;;;;;;;2.28;99.75;97569.63;4947012;29;20059;-60
2021/11/13 00:29:00;;;;;;;29.17;13.85;;;;;;;2.33;99.06;97577.72;4947225;29;20505;-61
2021/11/13 00:31:27;;;;;;;26.60;12.38;;;;;;;2.41;97.09;97568.00;4947036;29;20070;-64
2021/11/13 00:33:54;;;;;;;26.00;12.40;;;;;;;1.38;96.57;97490.28;4947188;28;20051;-61
2021/11/13 00:36:20;;;;;;;29.05;12.60;;;;;;;1.64;97.54;97504.25;4946839;29;20408;-61
2021/11/13 00:38:47;;;;;;;21.95;12.13;;;;;;;2.08;97.23;97569.22;4946929;28;20058;-61
2021/11/13 00:41:14;;;;;;;26.92;12.25;;;;;;;2.06;97.57;97572.25;4961330;28;20541;-61
2021/11/13 00:43:41;;;;;;;26.35;11.20;;;;;;;2.10;97.82;97572.47;4945716;29;20130;-61
2021/11/13 00:46:08;;;;;;;25.90;11.98;;;;;;;2.13;98.32;97571.88;4946914;29;20518;-62
2021/11/13 00:48:35;;;;;;;25.88;12.05;;;;;;;1.92;97.54;97548.78;4946680;28;20047;-60
2021/11/13 00:51:02;;;;;;;32.55;13.38;;;;;;;2.14;97.81;97573.47;4946792;29;20063;-62
2021/11/13 00:53:29;;;;;;;33.35;14.77;;;;;;;2.13;97.62;97574.59;4947003;29;20059;-62
2021/11/13 00:55:56;;;;;;;26.73;12.95;;;;;;;1.69;95.45;97506.91;4944346;28;20047;-62
2021/11/13 00:58:23;;;;;;;26.55;13.38;;;;;;;1.90;95.70;97570.13;4947067;29;20057;-61
2021/11/13 01:00:50;;;;;;;25.02;11.93;;;;;;;1.85;95.23;97565.56;4946872;29;20075;-62
2021/11/13 01:03:16;;;;;;;30.02;11.85;;;;;;;1.80;95.11;97567.59;4961303;28;20059;-61
2021/11/13 01:05:44;;;;;;;23.33;11.18;;;;;;;1.09;94.83;97506.06;4946929;29;20047;-62
2021/11/13 01:08:11;;;;;;;24.13;12.43;;;;;;;1.53;95.62;97569.13;4945333;29;20054;-62
2021/11/13 01:10:38;;;;;;;26.80;12.05;;;;;;;1.54;96.57;97567.22;4946440;29;20136;-61
2021/11/13 01:13:05;;;;;;;32.15;12.93;;;;;;;1.60;97.51;97563.28;4945058;29;20048;-61
2021/11/13 01:15:32;;;;;;;30.10;13.40;;;;;;;1.70;97.75;97560.41;4944545;29;20543;-61
2021/11/13 01:17:59;;;;;;;28.30;11.90;;;;;;;1.69;97.79;97561.50;4946483;29;20051;-64
2021/11/13 01:20:26;;;;;;;26.63;11.88;;;;;;;1.78;98.14;97565.16;4945813;28;20450;-63
2021/11/13 01:22:52;;;;;;;27.30;12.90;;;;;;;1.76;98.48;97558.38;4946285;29;20512;-61
2021/11/13 01:25:19;;;;;;;20.10;9.60;;;;;;;1.75;99.60;97543.09;4944749;29;20059;-61
2021/11/13 01:27:46;;;;;;;16.48;6.72;;;;;;;1.80;99.53;97556.66;4946338;28;20446;-63
2021/11/13 01:30:16;;;;;;;13.50;6.05;;;;;;;1.68;100.00;97559.06;4944829;29;20047;-61
2021/11/13 01:32:44;;;;;;;11.57;5.85;;;;;;;1.68;100.00;97564.50;4946365;29;20063;-63
2021/11/13 01:35:12;;;;;;;11.25;5.53;;;;;;;1.77;100.00;97565.47;4945421;29;20073;-60
2021/11/13 01:37:39;;;;;;;13.98;5.72;;;;;;;1.80;99.50;97562.94;4946045;28;20529;-62
2021/11/13 01:40:08;;;;;;;11.13;5.10;;;;;;;1.81;99.74;97561.00;4945598;29;20158;-61
2021/11/13 01:42:35;;;;;;;14.98;5.10;;;;;;;1.26;98.49;97484.50;4945585;28;20051;-61
2021/11/13 01:45:04;;;;;;;13.45;6.65;;;;;;;1.78;98.81;97565.16;4945754;29;20058;-62
2021/11/13 01:47:31;;;;;;;16.45;6.60;;;;;;;1.75;98.94;97559.47;4945585;29;20445;-62
2021/11/13 01:49:58;;;;;;;16.38;8.55;;;;;;;1.68;97.15;97559.88;4945104;29;20055;-63
2021/11/13 01:52:24;;;;;;;17.95;8.95;;;;;;;1.66;95.03;97566.75;4945293;29;20483;-60
2021/11/13 01:54:51;;;;;;;14.40;7.22;;;;;;;1.03;95.11;97493.63;4945540;28;20513;-59
2021/11/13 01:57:22;;;;;;;15.82;6.95;;;;;;;1.36;96.09;97568.91;4945521;28;20427;-61
2021/11/13 01:59:52;;;;;;;11.48;6.50;;;;;;;1.30;96.71;97570.09;4960352;28;20411;-60
2021/11/13 02:02:19;;;;;;;14.15;6.15;;;;;;;0.56;96.83;97444.78;4944146;29;20090;-61
2021/11/13 02:04:46;;;;;;;18.33;7.30;;;;;;;0.72;97.37;97484.31;4945371;29;20450;-61
2021/11/13 02:07:13;;;;;;;12.95;5.97;;;;;;;1.26;99.08;97573.72;4943729;29;20055;-61
2021/11/13 02:09:40;;;;;;;16.20;6.80;;;;;;;1.35;99.49;97570.00;4945577;28;20415;-61
2021/11/13 02:12:07;;;;;;;16.42;6.78;;;;;;;1.51;98.49;97565.91;4945695;29;20059;-61
2021/11/13 02:14:34;;;;;;;12.70;6.22;;;;;;;1.19;98.29;97527.72;4945784;29;20067;-60
2021/11/13 02:17:01;;;;;;;10.93;5.53;;;;;;;1.39;99.88;97568.28;4945687;29;20462;-62
2021/11/13 02:19:27;;;;;;;15.55;7.22;;;;;;;1.25;99.29;97572.91;4945583;28;20077;-60
2021/11/13 02:21:54;;;;;;;25.80;11.25;;;;;;;0.83;99.48;97483.03;4945483;28;20051;-60
2021/11/13 02:24:21;;;;;;;47.75;16.17;;;;;;;1.40;100.00;97569.13;4943982;29;20048;-62
2021/11/13 02:26:47;;;;;;;56.10;18.70;;;;;;;1.36;98.09;97541.59;4945671;28;20511;-60
2021/11/13 02:29:14;;;;;;;54.88;18.40;;;;;;;1.51;97.53;97576.84;4945210;28;20215;-60
2021/11/13 02:31:44;;;;;;;62.92;19.98;;;;;;;1.21;97.66;97525.50;4945621;28;20051;-60
2021/11/13 02:34:12;;;;;;;58.80;21.13;;;;;;;1.46;97.46;97562.44;4944041;29;20062;-60
2021/11/13 02:36:40;;;;;;;48.95;16.92;;;;;;;1.53;97.31;97562.88;4945406;28;20506;-61
2021/11/13 02:39:09;;;;;;;34.60;11.85;;;;;;;1.54;97.56;97559.84;4944648;29;20047;-60
2021/11/13 02:41:38;;;;;;;17.75;7.88;;;;;;;1.30;97.51;97548.25;4945150;29;20051;-61
2021/11/13 02:44:07;;;;;;;15.43;7.65;;;;;;;1.50;97.62;97563.50;4944276;29;20059;-60
2021/11/13 02:46:34;;;;;;;18.50;7.57;;;;;;;0.41;96.91;97382.31;4943425;29;20058;-60
2021/11/13 02:49:02;;;;;;;19.55;8.32;;;;;;;1.67;97.24;97574.66;4945413;29;20078;-60
2021/11/13 02:51:29;;;;;;;27.08;11.45;;;;;;;1.56;97.17;97568.53;4944966;29;20081;-60
2021/11/13 02:53:56;;;;;;;30.48;10.88;;;;;;;1.60;96.67;97570.69;4945931;29;20082;-61
2021/11/13 02:56:23;;;;;;;34.90;12.13;;;;;;;1.46;95.92;97677.91;4945100;28;20059;-63
2021/11/13 02:58:50;;;;;;;29.67;11.77;;;;;;;0.77;95.62;97480.69;4959718;28;20055;-62
2021/11/13 03:01:20;;;;;;;37.38;13.57;;;;;;;1.33;95.65;97572.22;4944984;28;20114;-60
2021/11/13 03:03:52;;;;;;;39.70;13.20;;;;;;;-0.99;95.23;97199.41;4945057;28;20447;-61
2021/11/13 03:06:20;;;;;;;29.02;11.75;;;;;;;1.37;95.84;97570.53;4944946;29;20055;-60
2021/11/13 03:08:50;;;;;;;23.15;10.25;;;;;;;1.41;95.04;97574.28;4945343;29;20051;-61
2021/11/13 03:11:18;;;;;;;23.08;11.13;;;;;;;0.89;95.00;97530.94;4945265;29;20589;-61
2021/11/13 03:13:48;;;;;;;24.70;8.48;;;;;;;1.21;97.25;97580.06;4943791;29;20114;-63
2021/11/13 03:16:17;;;;;;;12.48;6.55;;;;;;;-1.29;98.13;97168.03;4944962;29;20596;-61
2021/11/13 03:18:44;;;;;;;14.05;6.38;;;;;;;1.42;98.44;97584.06;4945147;28;20150;-60
2021/11/13 03:21:11;;;;;;;12.95;6.60;;;;;;;1.42;98.75;97578.63;4948324;29;20722;-61
2021/11/13 03:23:41;;;;;;;10.10;5.50;;;;;;;1.39;99.37;97573.75;4947204;29;20051;-62
2021/11/13 03:26:14;;;;;;;17.42;5.97;;;;;;;0.43;98.52;97412.03;4948308;28;20550;-61
2021/11/13 03:28:46;;;;;;;13.38;5.72;;;;;;;1.46;98.26;97576.91;4963428;28;20059;-62
2021/11/13 03:31:13;;;;;;;15.63;6.72;;;;;;;0.93;98.29;97496.50;4948191;29;20051;-60
2021/11/13 03:33:42;;;;;;;15.93;7.03;;;;;;;1.41;98.85;97574.28;4946528;29;20438;-60
2021/11/13 03:36:10;;;;;;;16.70;5.95;;;;;;;1.07;97.90;97538.28;4947883;29;20090;-63
2021/11/13 03:38:38;;;;;;;13.18;6.20;;;;;;;1.44;97.17;97568.22;4948389;29;20054;-63
2021/11/13 03:41:06;;;;;;;11.68;5.45;;;;;;;1.37;96.85;97583.34;4962430;28;20079;-61
2021/11/13 03:43:37;;;;;;;13.93;7.30;;;;;;;1.30;97.12;97570.09;4948667;29;20146;-61
2021/11/13 03:46:05;;;;;;;13.07;6.90;;;;;;;1.27;96.95;97581.59;4947812;29;20329;-61
2021/11/13 03:48:32;;;;;;;14.60;6.55;;;;;;;1.24;96.90;97581.38;4946742;28;20055;-60
2021/11/13 03:51:00;;;;;;;15.55;5.75;;;;;;;1.13;97.49;97580.75;4947975;29;20563;-60
2021/11/13 03:53:26;;;;;;;9.65;4.18;;;;;;;1.03;98.71;97575.44;4946618;29;20051;-60
2021/11/13 03:55:53;;;;;;;11.45;5.13;;;;;;;1.01;98.83;97555.81;4947952;28;20061;-63
2021/11/13 03:58:20;;;;;;;11.93;5.53;;;;;;;1.21;98.43;97577.34;4947722;29;20065;-61
2021/11/13 04:00:47;;;;;;;17.98;8.05;;;;;;;0.67;98.21;97510.81;4946328;29;20055;-61
2021/11/13 04:03:14;;;;;;;16.73;7.82;;;;;;;0.45;96.65;97459.66;4945952;28;20055;-60
2021/11/13 04:05:41;;;;;;;14.05;5.15;;;;;;;1.12;97.33;97579.09;4947938;28;20096;-61
2021/11/13 04:08:08;;;;;;;15.75;5.70;;;;;;;1.08;96.60;97591.72;4947811;28;20054;-62
2021/11/13 04:10:35;;;;;;;18.65;7.60;;;;;;;0.48;95.64;97486.31;4947497;29;20190;-63
2021/11/13 04:13:02;;;;;;;23.10;10.73;;;;;;;0.90;95.51;97570.72;4945893;29;20507;-60
2021/11/13 04:15:28;;;;;;;18.98;8.95;;;;;;;0.79;95.42;97558.34;4947323;29;20058;-60
2021/11/13 04:17:55;;;;;;;22.35;9.15;;;;;;;0.11;94.69;97445.47;4947400;28;20062;-60
2021/11/13 04:20:22;;;;;;;12.23;7.15;;;;;;;1.00;94.54;97589.66;4947022;29;20529;-60
2021/11/13 04:22:50;;;;;;;15.30;6.65;;;;;;;0.84;93.49;97561.00;4945558;28;20047;-62
2021/11/13 04:25:18;;;;;;;15.48;6.47;;;;;;;0.82;93.71;97593.19;4945909;29;20443;-63
2021/11/13 04:27:45;;;;;;;12.07;6.35;;;;;;;0.64;94.82;97588.56;4947085;28;20070;-63
2021/11/13 04:30:14;;;;;;;11.95;6.00;;;;;;;-0.18;95.48;97466.53;4947292;28;20051;-60
2021/11/13 04:32:44;;;;;;;13.20;6.13;;;;;;;0.60;96.51;97592.97;4946000;28;20465;-64
2021/11/13 04:35:16;;;;;;;13.15;6.85;;;;;;;0.72;96.59;97600.72;4947226;29;20095;-61
2021/11/13 04:37:45;;;;;;;15.40;6.75;;;;;;;0.66;97.13;97602.72;4946633;29;20522;-62
2021/11/13 04:40:13;;;;;;;16.23;7.85;;;;;;;0.31;97.98;97534.25;4946822;28;20058;-62
2021/11/13 04:42:41;;;;;;;15.48;7.65;;;;;;;0.71;98.37;97597.16;4946843;29;20063;-61
2021/11/13 04:45:08;;;;;;;22.83;10.57;;;;;;;0.47;98.14;97544.66;4946696;29;20147;-61
2021/11/13 04:47:35;;;;;;;29.77;11.90;;;;;;;0.75;97.97;97562.78;4945522;29;20055;-62
2021/11/13 04:50:04;;;;;;;33.30;12.73;;;;;;;0.83;98.34;97605.75;4942463;29;20063;-62
2021/11/13 04:52:31;;;;;;;28.42;11.88;;;;;;;0.66;99.36;97570.00;4926404;29;20055;-62
2021/11/13 04:54:57;;;;;;;29.70;12.18;;;;;;;0.89;99.43;97607.28;4928014;29;20047;-61
2021/11/13 04:57:24;;;;;;;28.98;12.77;;;;;;;0.84;99.24;97609.25;4926887;29;20060;-62
2021/11/13 04:59:51;;;;;;;24.20;10.02;;;;;;;0.33;98.09;97516.53;4927487;29;20063;-61
2021/11/13 05:02:18;;;;;;;16.73;7.90;;;;;;;0.23;98.14;97500.31;4927442;28;20051;-61
2021/11/13 05:04:45;;;;;;;17.13;8.65;;;;;;;0.98;97.77;97621.88;4927473;29;20064;-61
2021/11/13 05:07:12;;;;;;;19.58;8.60;;;;;;;0.90;97.59;97619.81;4927261;29;20047;-62
2021/11/13 05:09:38;;;;;;;20.10;9.82;;;;;;;0.67;98.72;97609.78;4927637;29;20577;-61
2021/11/13 05:12:06;;;;;;;20.13;9.50;;;;;;;0.43;98.52;97549.06;4927332;29;20055;-60
2021/11/13 05:14:32;;;;;;;18.58;9.57;;;;;;;0.77;99.15;97615.09;4925771;29;20058;-61
2021/11/13 05:16:59;;;;;;;19.05;7.65;;;;;;;0.72;99.21;97617.91;4926816;29;20063;-63
2021/11/13 05:19:26;;;;;;;19.88;9.07;;;;;;;0.25;99.46;97541.69;4941568;29;20051;-59
2021/11/13 05:21:52;;;;;;;24.40;10.85;;;;;;;0.71;98.98;97624.44;4927381;29;20055;-62
2021/11/13 05:24:19;;;;;;;26.08;12.10;;;;;;;0.84;99.86;97631.06;4925555;29;20055;-61
2021/11/13 05:26:46;;;;;;;32.58;13.98;;;;;;;0.89;100.00;97631.00;4926925;29;20067;-61
2021/11/13 05:29:13;;;;;;;28.35;14.93;;;;;;;0.99;99.40;97631.69;4927496;28;20070;-62
2021/11/13 05:31:39;;;;;;;26.75;13.63;;;;;;;1.01;98.47;97632.19;4926745;29;20052;-62
2021/11/13 05:34:06;;;;;;;27.40;15.48;;;;;;;1.07;98.49;97641.94;4926936;29;20048;-60
2021/11/13 05:36:33;;;;;;;47.25;22.50;;;;;;;1.13;99.17;97706.22;4926771;29;20047;-60
2021/11/13 05:39:00;;;;;;;61.30;27.10;;;;;;;0.78;97.65;97654.88;4926602;29;20059;-61
2021/11/13 05:41:26;;;;;;;30.40;12.82;;;;;;;0.23;100.00;97663.72;4926464;29;20059;-63
2021/11/13 05:43:58;;;;;;;30.80;13.77;;;;;;;0.06;100.00;97616.25;4926304;29;20047;-62
2021/11/13 05:46:25;;;;;;;34.85;17.67;;;;;;;0.60;100.00;97669.28;4926493;29;20055;-62
2021/11/13 05:48:51;;;;;;;18.45;7.65;;;;;;;0.11;99.17;97671.50;4931027;29;20426;-60
2021/11/13 05:51:18;;;;;;;15.45;6.35;;;;;;;-0.17;99.00;97675.84;4945483;29;20047;-61
2021/11/13 05:53:45;;;;;;;16.98;6.30;;;;;;;-0.14;100.00;97674.44;4945645;28;20051;-61
2021/11/13 05:56:12;;;;;;;11.73;6.15;;;;;;;-0.85;99.32;97532.00;4945611;28;20057;-61
2021/11/13 05:58:57;;;;;;;10.60;6.05;;;;;;;-0.02;100.00;97688.50;4945047;28;20086;-63
2021/11/13 06:01:24;;;;;;;13.68;6.07;;;;;;;0.11;100.00;97682.38;4943915;29;20531;-60
2021/11/13 06:03:51;;;;;;;11.38;5.53;;;;;;;0.37;98.43;97691.91;4945052;29;20106;-59
2021/11/13 06:06:17;;;;;;;14.90;6.55;;;;;;;0.17;98.14;97594.06;4945698;28;20521;-59
2021/11/13 06:08:44;;;;;;;20.15;5.68;;;;;;;0.96;96.46;97689.56;4945281;29;20055;-61
2021/11/13 06:11:11;;;;;;;67.50;27.70;;;;;;;0.60;98.35;97685.63;4945380;28;20062;-60
2021/11/13 06:13:38;;;;;;;42.95;17.25;;;;;;;0.29;99.95;97668.00;4945241;29;20053;-60
2021/11/13 06:16:08;;;;;;;99.38;40.95;;;;;;;0.57;100.00;97691.66;4945111;29;20055;-61
2021/11/13 06:18:35;;;;;;;36.58;15.95;;;;;;;1.09;100.00;97688.81;4945519;29;20059;-61
2021/11/13 06:21:07;;;;;;;64.30;28.38;;;;;;;0.86;97.17;97716.94;4958441;28;20074;-61
2021/11/13 06:23:35;;;;;;;38.58;17.58;;;;;;;1.44;95.46;97696.50;4945569;28;20051;-60
2021/11/13 06:26:04;;;;;;;19.13;9.00;;;;;;;1.21;96.73;97642.81;4944805;29;20070;-61
2021/11/13 06:28:31;;;;;;;13.27;6.32;;;;;;;1.56;96.14;97702.31;4943908;29;20445;-61
2021/11/13 06:30:59;;;;;;;19.05;7.68;;;;;;;1.03;98.32;97599.97;4944907;29;20539;-61
2021/11/13 06:33:25;;;;;;;15.10;7.30;;;;;;;1.90;96.92;97687.59;4945707;29;20062;-61
2021/11/13 06:35:52;;;;;;;14.80;7.85;;;;;;;0.92;95.16;97530.34;4944729;28;20541;-61
2021/11/13 06:38:19;;;;;;;12.82;6.20;;;;;;;2.08;95.22;97701.19;4944056;28;20907;-61
2021/11/13 06:40:46;;;;;;;15.90;6.72;;;;;;;2.34;94.43;97698.81;4943612;29;20060;-61
2021/11/13 06:43:13;;;;;;;14.68;6.38;;;;;;;2.31;93.04;97674.81;4945358;29;20533;-63
2021/11/13 06:45:40;;;;;;;18.25;6.78;;;;;;;2.21;91.59;97650.41;4944930;28;20055;-62
2021/11/13 06:48:07;;;;;;;13.45;7.22;;;;;;;2.59;90.92;97690.13;4944490;29;20134;-61
2021/11/13 06:50:34;;;;;;;16.85;6.57;;;;;;;1.91;90.41;97567.09;4934770;29;20048;-62
2021/11/13 06:53:02;;;;;;;12.55;6.95;;;;;;;2.88;90.10;97699.66;4934800;28;20047;-62
2021/11/13 06:55:29;;;;;;;11.95;6.20;;;;;;;2.54;88.94;97617.22;4936219;29;20059;-61
2021/11/13 06:57:56;;;;;;;11.82;5.82;;;;;;;3.34;88.66;97696.72;4947015;29;20051;-61
2021/11/13 07:00:25;;;;;;;14.18;7.20;;;;;;;3.48;87.52;97707.66;4938218;29;20808;-61
2021/11/13 07:02:57;;;;;;;12.43;6.90;;;;;;;3.30;89.61;97701.22;4953083;28;20795;-62
2021/11/13 07:05:23;;;;;;;13.15;7.22;;;;;;;3.27;88.40;97646.28;4933315;29;20482;-69
2021/11/13 07:07:50;;;;;;;13.68;6.97;;;;;;;3.11;91.37;97706.00;4928705;29;20055;-67
2021/11/13 07:10:18;;;;;;;18.95;8.02;;;;;;;2.46;90.92;97532.38;4944418;29;20145;-65
2021/11/13 07:12:45;;;;;;;16.08;7.82;;;;;;;3.76;89.94;97699.03;4936463;29;20130;-62
2021/11/13 07:15:13;;;;;;;17.75;7.75;;;;;;;4.13;87.51;97704.16;4945873;29;20042;-64
2021/11/13 07:17:40;;;;;;;14.77;7.35;;;;;;;4.07;86.26;97672.50;4941654;28;20318;-66
2021/11/13 07:20:11;;;;;;;24.70;7.35;;;;;;;4.32;86.71;97696.53;4932760;29;20134;-63
2021/11/13 07:22:47;;;;;;;14.48;7.05;;;;;;;4.60;85.60;97695.22;4943726;28;20408;-64
2021/11/13 07:25:15;;;;;;;23.33;7.68;;;;;;;4.29;86.10;97647.78;4927340;29;20573;-67
2021/11/13 07:27:45;;;;;;;16.98;8.50;;;;;;;4.76;85.42;97686.56;4936194;29;20903;-65
2021/11/13 07:30:16;;;;;;;18.50;8.00;;;;;;;4.19;86.50;97601.44;4945021;28;20063;-68
2021/11/13 07:32:44;;;;;;;19.65;7.88;;;;;;;4.48;85.90;97645.63;4940263;29;20063;-65
2021/11/13 07:35:10;;;;;;;19.23;8.88;;;;;;;3.49;86.30;97485.53;4939989;28;20051;-64
2021/11/13 07:37:37;;;;;;;20.13;8.50;;;;;;;5.02;85.69;97676.47;4936915;29;20051;-66
2021/11/13 07:40:05;;;;;;;21.38;9.10;;;;;;;5.14;86.53;97684.91;4946065;28;20047;-65
2021/11/13 07:42:32;;;;;;;26.05;10.10;;;;;;;5.23;86.13;97666.50;4948187;28;20051;-65
2021/11/13 07:44:59;;;;;;;19.50;8.73;;;;;;;5.11;86.50;97625.13;4947999;28;20054;-67
2021/11/13 07:47:26;;;;;;;19.83;7.90;;;;;;;5.66;85.57;97681.06;4945730;28;20063;-68
2021/11/13 07:49:53;;;;;;;25.55;8.25;;;;;;;5.41;85.80;97622.25;4946966;28;20047;-65
2021/11/13 07:52:20;;;;;;;15.93;7.32;;;;;;;4.68;87.14;97546.28;4947770;28;20101;-65
2021/11/13 07:54:47;;;;;;;21.45;8.82;;;;;;;5.46;88.99;97651.50;4946139;29;20058;-66
2021/11/13 07:57:14;;;;;;;18.25;7.43;;;;;;;5.81;87.19;97692.41;4947337;28;20055;-68
2021/11/13 07:59:41;;;;;;;25.65;6.88;;;;;;;5.96;87.32;97680.13;4947305;29;20051;-64
2021/11/13 08:02:08;;;;;;;19.83;7.97;;;;;;;5.86;88.00;97683.22;4933243;28;20048;-65
2021/11/13 08:04:35;;;;;;;19.45;7.63;;;;;;;4.91;91.09;97651.25;4938380;28;20086;-64
2021/11/13 08:07:02;;;;;;;13.10;6.55;;;;;;;5.61;90.10;97684.78;4937419;28;20058;-61
2021/11/13 08:09:29;;;;;;;20.63;8.88;;;;;;;5.62;90.76;97680.13;4943309;28;20879;-64
2021/11/13 08:11:55;;;;;;;25.75;10.82;;;;;;;5.78;91.97;97684.81;4941140;28;20510;-63
2021/11/13 08:14:22;;;;;;;20.83;9.27;;;;;;;6.03;89.46;97680.47;4942294;29;20051;-62
2021/11/13 08:16:49;;;;;;;12.38;6.32;;;;;;;4.88;94.19;97681.28;4927878;29;20052;-62
2021/11/13 08:19:15;;;;;;;20.67;7.68;;;;;;;4.81;99.34;97683.66;4928543;29;20055;-62
2021/11/13 08:21:42;;;;;;;16.45;7.72;;;;;;;4.19;100.00;97686.44;4928075;29;20056;-60
2021/11/13 08:24:10;;;;;;;16.10;7.30;;;;;;;4.31;100.00;97688.59;4928694;29;20546;-61
2021/11/13 08:26:37;;;;;;;21.25;8.57;;;;;;;4.50;100.00;97648.06;4928253;29;20056;-60
2021/11/13 08:29:04;;;;;;;20.48;8.23;;;;;;;5.31;100.00;97673.97;4928601;29;20048;-64
2021/11/13 08:31:31;;;;;;;19.17;7.82;;;;;;;4.32;100.00;97627.97;4927714;29;20059;-62
2021/11/13 08:33:58;;;;;;;19.80;9.90;;;;;;;5.14;100.00;97668.44;4926822;29;20135;-60
2021/11/13 08:36:24;;;;;;;17.75;7.90;;;;;;;5.18;98.50;97650.19;4942211;29;20058;-62
2021/11/13 08:38:51;;;;;;;19.80;7.78;;;;;;;5.45;100.00;97685.59;4927736;29;20067;-61
2021/11/13 08:41:18;;;;;;;22.17;8.63;;;;;;;5.81;97.48;97672.34;4927635;29;20088;-60
2021/11/13 08:43:45;;;;;;;23.80;9.00;;;;;;;5.76;97.19;97683.50;4927915;28;20070;-61
2021/11/13 08:46:11;;;;;;;23.83;9.18;;;;;;;5.88;95.42;97634.22;4927568;29;20450;-62
2021/11/13 08:48:38;;;;;;;15.02;7.07;;;;;;;5.37;96.81;97672.66;4928027;29;20631;-61
2021/11/13 08:51:05;;;;;;;17.08;7.68;;;;;;;5.26;97.71;97617.25;4941890;29;20438;-61
2021/11/13 08:53:33;;;;;;;26.13;10.20;;;;;;;4.98;100.00;97543.75;4926795;29;20051;-63
2021/11/13 08:56:00;;;;;;;24.08;9.52;;;;;;;5.98;99.00;97686.13;4927680;29;20066;-62
2021/11/13 08:58:26;;;;;;;26.10;10.85;;;;;;;5.86;94.28;97565.81;4927587;29;20055;-62
2021/11/13 09:01:01;;;;;;;25.23;12.27;;;;;;;6.63;92.26;97678.38;4927313;29;20134;-62
2021/11/13 09:03:32;;;;;;;27.35;10.10;;;;;;;6.28;93.35;97632.84;4941603;29;20056;-64
2021/11/13 09:06:01;;;;;;;18.42;8.20;;;;;;;5.49;93.61;97604.16;4927194;29;20056;-61
2021/11/13 09:08:33;;;;;;;26.40;12.48;;;;;;;6.09;96.17;97679.16;4926101;29;20056;-62
2021/11/13 09:10:59;;;;;;;29.73;12.65;;;;;;;4.79;99.06;97543.22;4927237;29;20312;-60
2021/11/13 09:13:27;;;;;;;27.80;12.93;;;;;;;5.55;100.00;97674.28;4927906;29;20151;-61
2021/11/13 09:15:57;;;;;;;38.20;15.70;;;;;;;5.22;100.00;97587.97;4927096;29;20443;-61
2021/11/13 09:18:24;;;;;;;36.47;14.48;;;;;;;5.52;100.00;97663.94;4926620;28;20070;-60
2021/11/13 09:20:51;;;;;;;31.48;13.77;;;;;;;5.82;100.00;97657.50;4941501;29;20462;-60
2021/11/13 09:23:18;;;;;;;43.22;16.00;;;;;;;5.59;100.00;97647.78;4927227;29;20069;-61
2021/11/13 09:25:46;;;;;;;36.63;14.55;;;;;;;6.16;100.00;97646.47;4926727;29;20055;-65
2021/11/13 09:28:13;;;;;;;22.92;10.80;;;;;;;6.14;96.70;97654.22;4926831;29;20150;-61
2021/11/13 09:30:41;;;;;;;28.50;12.57;;;;;;;5.98;98.64;97631.13;4927290;29;20078;-61
2021/11/13 09:33:09;;;;;;;31.02;14.48;;;;;;;5.65;100.00;97643.75;4927082;29;20051;-63
2021/11/13 09:35:38;;;;;;;29.13;14.02;;;;;;;5.92;100.00;97644.25;4927045;29;20052;-61
2021/11/13 09:38:34;;;;;;;26.38;13.25;;;;;;;6.60;100.00;97596.47;4927014;29;20804;-60
2021/11/13 09:41:06;;;;;;;26.10;12.00;;;;;;;6.29;95.84;97568.44;4925565;29;20052;-60
2021/11/13 09:43:34;;;;;;;29.90;14.05;;;;;;;6.61;98.35;97625.59;4927230;29;20056;-61
2021/11/13 09:46:04;;;;;;;29.90;13.52;;;;;;;6.51;97.30;97612.22;4925769;29;20052;-61
2021/11/13 09:48:33;;;;;;;27.02;12.32;;;;;;;6.87;98.98;97631.78;4941745;29;20649;-62
2021/11/13 09:51:01;;;;;;;25.48;12.00;;;;;;;7.29;94.81;97608.66;4926867;29;20605;-61
2021/11/13 09:53:29;;;;;;;27.85;12.73;;;;;;;7.60;94.59;97609.06;4925241;29;20059;-62
2021/11/13 09:55:58;;;;;;;24.48;11.38;;;;;;;8.04;90.87;97606.72;4940863;29;20055;-62
2021/11/13 09:58:26;;;;;;;25.83;10.93;;;;;;;8.31;89.09;97608.91;4944726;29;20051;-61
2021/11/13 10:00:53;;;;;;;20.10;10.75;;;;;;;8.37;88.27;97582.69;4945689;29;20061;-61
2021/11/13 10:03:21;;;;;;;19.60;10.45;;;;;;;7.45;91.14;97540.78;4943977;29;20051;-61
2021/11/13 10:05:58;;;;;;;21.95;10.60;;;;;;;8.29;89.64;97608.44;4945940;29;20063;-60
2021/11/13 10:08:25;;;;;;;21.35;10.27;;;;;;;8.56;88.47;97591.22;4945812;29;20502;-60
2021/11/13 10:10:58;;;;;;;20.15;9.48;;;;;;;8.57;89.19;97588.09;4945758;28;20047;-61
2021/11/13 10:13:27;;;;;;;16.73;8.85;;;;;;;8.48;88.72;97581.09;4945628;28;20059;-61
2021/11/13 10:15:58;;;;;;;21.83;10.00;;;;;;;8.66;88.36;97574.22;4944038;29;20055;-63
2021/11/13 10:18:28;;;;;;;20.27;9.57;;;;;;;8.82;87.06;97572.38;4945319;29;20059;-61
2021/11/13 10:20:57;;;;;;;17.98;9.27;;;;;;;9.19;84.92;97571.16;4960118;28;20081;-62
2021/11/13 10:23:27;;;;;;;16.40;9.13;;;;;;;9.32;83.69;97567.22;4945856;28;20059;-61
2021/11/13 10:26:14;;;;;;;20.30;10.73;;;;;;;9.38;83.18;97573.28;4945593;29;20055;-61
2021/11/13 10:28:43;;;;;;;18.23;9.90;;;;;;;9.16;84.64;97560.81;4946874;28;20059;-61
2021/11/13 10:31:16;;;;;;;16.63;8.73;;;;;;;9.35;83.21;97585.06;4949239;29;20059;-61
2021/11/13 10:33:45;;;;;;;16.35;8.10;;;;;;;9.50;82.31;97554.72;4949244;29;20055;-60
2021/11/13 10:36:12;;;;;;;18.67;9.30;;;;;;;9.11;82.78;97514.06;4963857;28;20066;-63
2021/11/13 10:38:43;;;;;;;16.70;9.32;;;;;;;9.09;81.15;97450.84;4949179;29;20065;-63
2021/11/13 10:41:12;;;;;;;18.67;9.38;;;;;;;9.48;81.17;97551.50;4949647;29;20109;-61
2021/11/13 10:43:43;;;;;;;19.30;9.40;;;;;;;9.61;79.08;97506.03;4949260;29;20151;-62
2021/11/13 10:46:22;;;;;;;17.88;9.50;;;;;;;9.96;77.79;97548.53;4963710;28;20081;-60
2021/11/13 10:48:55;;;;;;;15.40;8.52;;;;;;;9.45;78.05;97502.44;4963480;28;20849;-62
2021/11/13 10:51:30;;;;;;;16.98;9.40;;;;;;;9.94;76.25;97541.75;4948883;29;20055;-62
2021/11/13 10:54:05;;;;;;;19.98;8.50;;;;;;;9.96;77.22;97536.63;4947730;29;20063;-62
2021/11/13 10:56:36;;;;;;;15.43;8.30;;;;;;;9.21;77.28;97425.13;4948853;29;20043;-61
2021/11/13 10:59:04;;;;;;;18.15;8.80;;;;;;;10.02;77.03;97527.72;4949333;29;20055;-61
2021/11/13 11:01:45;;;;;;;13.15;7.97;;;;;;;10.31;75.40;97527.34;4949100;28;20055;-62
2021/11/13 11:04:17;;;;;;;14.30;8.10;;;;;;;10.27;73.85;97473.88;4948634;29;20078;-62
2021/11/13 11:06:47;;;;;;;14.45;8.00;;;;;;;10.63;74.61;97512.34;4948500;28;20047;-63
2021/11/13 11:09:25;;;;;;;13.07;7.13;;;;;;;10.60;75.19;97521.38;4948645;29;20053;-61
2021/11/13 11:11:55;;;;;;;17.20;8.25;;;;;;;10.76;74.73;97501.97;4948880;29;20066;-62
2021/11/13 11:14:26;;;;;;;14.60;7.47;;;;;;;10.49;75.59;97503.69;4949108;29;20059;-61
2021/11/13 11:16:57;;;;;;;15.85;7.72;;;;;;;9.95;76.64;97461.13;4948583;29;20051;-63
2021/11/13 11:19:30;;;;;;;14.07;7.20;;;;;;;10.52;76.55;97557.56;4947103;29;20055;-63
2021/11/13 11:21:58;;;;;;;13.32;7.10;;;;;;;10.76;75.22;97490.06;4947083;29;20535;-64
2021/11/13 11:24:24;;;;;;;12.85;7.68;;;;;;;10.64;74.98;97499.28;4947149;29;20043;-62
2021/11/13 11:27:08;;;;;;;10.38;6.75;;;;;;;10.52;75.28;97486.34;4945522;28;20059;-63
2021/11/13 11:29:44;;;;;;;13.60;7.68;;;;;;;9.61;76.64;97376.03;4948452;29;20077;-62
2021/11/13 11:32:14;;;;;;;18.58;7.05;;;;;;;10.72;75.27;97489.19;4948147;29;20075;-62
2021/11/13 11:34:44;;;;;;;16.73;7.75;;;;;;;9.81;75.56;97375.00;4946553;29;20051;-63